This is the latest recevied weather packets stored in our database for station/object OK0BPL-5. If no packets are shown the sender has not sent any weather packets the latest 10 day(s).
| Time | Temp. | Humidity | Pressure | Rain* | Wind** | Luminosity | Snow |
|---|---|---|---|---|---|---|---|
| 1787656831 | 23.33° C | 44% | 1036.9 hPa | 0 mm | - | 114 W/m² | - |
| 1787655931 | 22.78° C | 46% | 1037.1 hPa | 0 mm | - | 102 W/m² | - |
| 1787655931 | 22.78° C | 46% | 1037.1 hPa | 0 mm | - | 102 W/m² | - |
| 1787655031 | 23.33° C | 45% | 1037.1 hPa | 0 mm | - | 138 W/m² | - |
| 1787655031 | 23.33° C | 45% | 1037.1 hPa | 0 mm | - | 138 W/m² | - |
| 1787654131 | 22.78° C | 45% | 1037.2 hPa | 0 mm | - | 177 W/m² | - |
| 1787654131 | 22.78° C | 45% | 1037.2 hPa | 0 mm | - | 177 W/m² | - |
| 1787653231 | 22.78° C | 46% | 1037.1 hPa | 0 mm | - | 124 W/m² | - |
| 1787653231 | 22.78° C | 46% | 1037.1 hPa | 0 mm | - | 124 W/m² | - |
| 1787652331 | 23.33° C | 44% | 1036.8 hPa | 0 mm | - | 156 W/m² | - |
| 1787652331 | 23.33° C | 44% | 1036.8 hPa | 0 mm | - | 156 W/m² | - |
| 1787651431 | 23.33° C | 44% | 1037 hPa | 0 mm | - | 209 W/m² | - |
| 1787650531 | 21.67° C | 47% | 1037.2 hPa | 0 mm | - | 137 W/m² | - |
| 1787649631 | 21.67° C | 49% | 1037.2 hPa | 0 mm | - | 151 W/m² | - |
| 1787649631 | 21.67° C | 49% | 1037.2 hPa | 0 mm | - | 151 W/m² | - |
| 1787648731 | 22.22° C | 46% | 1037 hPa | 0 mm | - | 141 W/m² | - |
| 1787648731 | 22.22° C | 46% | 1037 hPa | 0 mm | - | 141 W/m² | - |
| 1787647831 | 22.78° C | 45% | 1037 hPa | 0 mm | - | 213 W/m² | - |
| 1787647831 | 22.78° C | 45% | 1037 hPa | 0 mm | - | 213 W/m² | - |
| 1787646931 | 21.11° C | 48% | 1037.2 hPa | 0 mm | - | 198 W/m² | - |
| 1787646031 | 21.11° C | 49% | 1037.1 hPa | 0 mm | - | 114 W/m² | - |
| 1787646031 | 21.11° C | 49% | 1037.1 hPa | 0 mm | - | 114 W/m² | - |
| 1787645131 | 21.11° C | 49% | 1037.2 hPa | 0 mm | - | 154 W/m² | - |
| 1787645131 | 21.11° C | 49% | 1037.2 hPa | 0 mm | - | 154 W/m² | - |
| 1787644231 | 20.56° C | 50% | 1037.3 hPa | 0 mm | - | 141 W/m² | - |
* Rain latest hour (hover to see other rain measurements)
** Current wind speed in m/s (hover to see current wind gust speed)